createdAt,value
2023-01-19T00:00:45.930Z,8.82
2023-01-19T00:03:15.793Z,8.70
2023-01-19T00:05:46.563Z,8.68
2023-01-19T00:08:17.054Z,8.07
2023-01-19T00:10:45.936Z,8.20
2023-01-19T00:13:13.076Z,8.85
2023-01-19T00:15:39.736Z,8.82
2023-01-19T00:18:06.856Z,7.95
2023-01-19T00:20:35.623Z,8.88
2023-01-19T00:23:04.675Z,8.63
2023-01-19T00:25:31.534Z,8.55
2023-01-19T00:28:00.512Z,8.13
2023-01-19T00:30:28.591Z,8.75
2023-01-19T00:32:55.541Z,8.25
2023-01-19T00:35:22.129Z,8.27
2023-01-19T00:37:48.694Z,9.38
2023-01-19T00:40:15.382Z,8.18
2023-01-19T00:42:44.281Z,8.55
2023-01-19T00:45:14.183Z,8.38
2023-01-19T00:47:40.985Z,8.23
2023-01-19T00:50:11.859Z,7.90
2023-01-19T00:52:41.560Z,8.45
2023-01-19T00:55:09.642Z,8.15
2023-01-19T00:57:36.351Z,8.85
2023-01-19T01:00:06.463Z,8.88
2023-01-19T01:02:33.832Z,7.32
2023-01-19T01:05:02.753Z,7.95
2023-01-19T01:07:30.374Z,7.95
2023-01-19T01:09:57.424Z,8.60
2023-01-19T01:12:24.850Z,8.02
2023-01-19T01:14:51.491Z,7.63
2023-01-19T01:17:18.178Z,8.00
2023-01-19T01:19:44.760Z,8.07
2023-01-19T01:22:11.426Z,8.38
2023-01-19T01:24:38.228Z,7.95
2023-01-19T01:27:04.878Z,8.40
2023-01-19T01:29:31.488Z,8.57
2023-01-19T01:31:58.121Z,8.27
2023-01-19T01:34:25.058Z,8.35
2023-01-19T01:36:51.703Z,8.02
2023-01-19T01:39:18.357Z,8.07
2023-01-19T01:41:44.895Z,7.68
2023-01-19T01:45:02.985Z,7.95
2023-01-19T01:47:41.782Z,7.35
2023-01-19T01:50:17.695Z,8.02
2023-01-19T01:53:05.973Z,8.13
2023-01-19T01:55:39.231Z,7.45
2023-01-19T01:58:07.468Z,7.57
2023-01-19T02:00:54.102Z,7.30
2023-01-19T02:03:23.595Z,7.90
2023-01-19T02:05:51.057Z,7.72
2023-01-19T02:08:51.907Z,7.13
2023-01-19T02:11:37.405Z,6.35
2023-01-19T02:14:07.140Z,8.05
2023-01-19T02:16:36.325Z,7.18
2023-01-19T02:19:05.110Z,6.82
2023-01-19T02:21:35.179Z,6.28
2023-01-19T02:24:03.107Z,6.50
2023-01-19T02:26:31.477Z,7.00
2023-01-19T02:29:08.264Z,6.35
2023-01-19T02:31:37.244Z,6.43
2023-01-19T02:34:06.046Z,6.20
2023-01-19T02:36:38.269Z,6.45
2023-01-19T02:39:06.556Z,6.15
2023-01-19T02:41:40.047Z,6.55
2023-01-19T02:44:10.089Z,6.10
2023-01-19T02:46:38.515Z,5.95
2023-01-19T02:49:05.191Z,6.45
2023-01-19T02:51:32.226Z,6.60
2023-01-19T02:54:04.844Z,6.65
2023-01-19T02:56:37.221Z,6.60
2023-01-19T03:02:11.919Z,6.47
2023-01-19T03:05:00.826Z,6.32
2023-01-19T03:07:42.131Z,6.43
2023-01-19T03:10:19.382Z,6.57
2023-01-19T03:12:52.686Z,6.93
2023-01-19T03:15:30.083Z,6.22
2023-01-19T03:18:00.165Z,6.90
2023-01-19T03:20:28.825Z,6.63
2023-01-19T03:23:01.439Z,6.70
2023-01-19T03:25:33.229Z,6.38
2023-01-19T03:28:00.271Z,6.82
2023-01-19T03:30:34.672Z,6.63
2023-01-19T03:33:16.208Z,6.25
2023-01-19T03:35:49.025Z,6.22
2023-01-19T03:38:18.659Z,6.28
2023-01-19T03:40:47.490Z,6.35
2023-01-19T03:43:16.809Z,6.57
2023-01-19T03:45:44.201Z,6.43
2023-01-19T03:48:11.042Z,6.50
2023-01-19T03:50:37.671Z,6.47
2023-01-19T03:53:11.452Z,6.45
2023-01-19T03:55:41.090Z,6.57
2023-01-19T03:58:08.200Z,6.35
2023-01-19T04:00:36.539Z,6.25
2023-01-19T04:03:05.169Z,5.85
2023-01-19T04:05:32.638Z,5.90
2023-01-19T04:07:59.297Z,6.57
2023-01-19T04:10:25.929Z,6.82
2023-01-19T04:12:58.379Z,6.60
2023-01-19T04:15:25.632Z,6.15
2023-01-19T04:17:52.643Z,6.95
2023-01-19T04:20:19.702Z,5.85
2023-01-19T04:22:46.291Z,6.57
2023-01-19T04:25:12.883Z,6.28
2023-01-19T04:27:39.445Z,5.85
2023-01-19T04:30:06.789Z,5.65
2023-01-19T04:32:33.454Z,5.90
2023-01-19T04:35:00.114Z,6.43
2023-01-19T04:37:26.663Z,5.88
2023-01-19T04:39:53.252Z,6.10
2023-01-19T04:42:19.856Z,5.93
2023-01-19T04:44:46.661Z,6.60
2023-01-19T04:47:13.202Z,6.78
2023-01-19T04:49:40.413Z,6.38
2023-01-19T04:52:06.970Z,6.75
2023-01-19T04:54:33.577Z,6.25
2023-01-19T04:57:00.190Z,5.90
2023-01-19T04:59:26.824Z,6.20
2023-01-19T05:01:53.418Z,6.53
2023-01-19T05:04:20.109Z,6.43
2023-01-19T05:06:46.699Z,6.63
2023-01-19T05:09:15.265Z,6.47
2023-01-19T05:11:41.859Z,6.53
2023-01-19T05:14:08.471Z,7.00
2023-01-19T05:16:35.508Z,6.60
2023-01-19T05:19:02.124Z,6.72
2023-01-19T05:21:28.722Z,6.50
2023-01-19T05:23:55.279Z,6.70
2023-01-19T05:26:21.907Z,7.50
2023-01-19T05:28:48.672Z,7.28
2023-01-19T05:31:15.860Z,7.78
2023-01-19T05:33:42.991Z,6.38
2023-01-19T05:36:09.822Z,7.22
2023-01-19T05:38:36.582Z,7.32
2023-01-19T05:41:03.576Z,8.23
2023-01-19T05:43:30.137Z,8.27
2023-01-19T05:45:56.727Z,7.45
2023-01-19T05:48:23.316Z,7.65
2023-01-19T05:50:49.899Z,8.63
2023-01-19T05:53:17.054Z,8.00
2023-01-19T05:55:43.767Z,6.88
2023-01-19T05:58:10.361Z,7.70
2023-01-19T06:00:37.018Z,11.82
2023-01-19T06:03:04.183Z,9.35
2023-01-19T06:05:30.976Z,8.98
2023-01-19T06:07:57.872Z,8.52
2023-01-19T06:10:24.504Z,8.38
2023-01-19T06:12:52.498Z,61.15
2023-01-19T06:15:19.833Z,19.33
2023-01-19T06:17:46.442Z,9.60
2023-01-19T06:20:14.205Z,9.43
2023-01-19T06:22:40.807Z,11.35
2023-01-19T06:25:07.700Z,9.55
2023-01-19T06:27:34.425Z,9.85
2023-01-19T06:30:00.996Z,12.40
2023-01-19T06:32:27.756Z,21.70
2023-01-19T06:34:54.367Z,10.35
2023-01-19T06:37:21.069Z,10.43
2023-01-19T06:39:47.690Z,10.27
2023-01-19T06:42:14.421Z,11.18
2023-01-19T06:44:47.232Z,10.52
2023-01-19T06:47:17.438Z,10.48
2023-01-19T06:49:45.320Z,10.25
2023-01-19T06:52:15.934Z,13.88
2023-01-19T06:54:43.681Z,11.68
2023-01-19T06:57:12.462Z,23.25
2023-01-19T06:59:39.240Z,10.07
2023-01-19T07:02:28.005Z,11.05
2023-01-19T07:04:52.858Z,10.48
2023-01-19T07:07:19.408Z,10.75
2023-01-19T07:09:46.018Z,10.30
2023-01-19T07:12:14.677Z,11.25
2023-01-19T07:14:41.247Z,10.35
2023-01-19T07:17:08.693Z,10.07
2023-01-19T07:19:35.465Z,9.73
2023-01-19T07:22:03.181Z,10.15
2023-01-19T07:24:34.227Z,12.02
2023-01-19T07:27:00.916Z,10.77
2023-01-19T07:29:27.482Z,10.88
2023-01-19T07:31:54.726Z,10.63
2023-01-19T07:34:21.760Z,9.93
2023-01-19T07:36:48.778Z,11.23
2023-01-19T07:39:15.823Z,11.00
2023-01-19T07:41:42.424Z,10.88
2023-01-19T07:44:09.309Z,11.05
2023-01-19T07:46:35.964Z,10.52
2023-01-19T07:49:02.658Z,11.05
2023-01-19T07:51:29.283Z,10.50
2023-01-19T07:53:55.930Z,10.38
2023-01-19T07:56:24.271Z,9.40
2023-01-19T07:58:52.431Z,10.70
2023-01-19T08:01:19.462Z,9.75
2023-01-19T08:03:47.930Z,8.68
2023-01-19T08:06:32.641Z,9.35
2023-01-19T08:08:59.400Z,9.68
2023-01-19T08:11:26.078Z,8.80
2023-01-19T08:13:52.644Z,8.73
2023-01-19T08:16:19.339Z,8.30
2023-01-19T08:18:46.130Z,8.45
2023-01-19T08:21:12.746Z,7.63
2023-01-19T08:23:39.441Z,7.50
2023-01-19T08:26:20.553Z,6.85
2023-01-19T08:28:47.294Z,6.05
2023-01-19T08:31:20.856Z,6.25
2023-01-19T08:33:49.343Z,6.50
2023-01-19T08:36:16.727Z,6.25
2023-01-19T08:38:45.449Z,5.90
2023-01-19T08:41:13.138Z,5.90
2023-01-19T08:43:39.715Z,6.13
2023-01-19T08:46:06.787Z,6.18
2023-01-19T08:48:33.559Z,6.00
2023-01-19T08:51:00.568Z,5.70
2023-01-19T08:53:27.351Z,6.45
2023-01-19T08:55:57.426Z,6.07
2023-01-19T08:58:24.192Z,17.95
2023-01-19T09:00:52.612Z,12.02
2023-01-19T09:03:21.607Z,5.70
2023-01-19T09:05:48.666Z,5.38
2023-01-19T09:08:15.444Z,5.68
2023-01-19T09:10:47.567Z,5.03
2023-01-19T09:13:15.074Z,4.57
2023-01-19T09:15:43.189Z,4.60
2023-01-19T09:18:13.716Z,4.72
2023-01-19T09:20:44.464Z,4.38
2023-01-19T09:23:13.219Z,4.30
2023-01-19T09:25:41.121Z,4.68
2023-01-19T09:28:09.752Z,5.05
2023-01-19T09:30:38.587Z,4.20
2023-01-19T09:33:07.905Z,4.40
2023-01-19T09:35:35.070Z,4.38
2023-01-19T09:38:02.062Z,3.78
2023-01-19T09:40:29.175Z,3.78
2023-01-19T09:42:59.478Z,3.65
2023-01-19T09:45:38.710Z,4.00
2023-01-19T09:48:29.947Z,4.00
2023-01-19T09:51:02.062Z,4.65
2023-01-19T09:54:06.336Z,4.70
2023-01-19T09:56:33.372Z,4.93
2023-01-19T09:59:01.136Z,4.53
2023-01-19T10:01:37.992Z,4.50
2023-01-19T10:04:19.563Z,5.60
2023-01-19T10:06:48.538Z,5.93
2023-01-19T10:09:43.211Z,5.70
2023-01-19T10:12:21.450Z,5.25
2023-01-19T10:15:05.078Z,5.57
2023-01-19T10:17:50.419Z,5.30
2023-01-19T10:20:26.512Z,5.47
2023-01-19T10:22:53.915Z,4.85
2023-01-19T10:25:25.532Z,5.57
2023-01-19T10:27:52.216Z,5.13
2023-01-19T10:30:23.689Z,4.50
2023-01-19T10:32:51.128Z,5.40
2023-01-19T10:35:25.323Z,5.63
2023-01-19T10:38:01.505Z,5.55
2023-01-19T10:40:37.436Z,5.80
2023-01-19T10:43:37.346Z,5.18
2023-01-19T10:46:17.338Z,5.32
2023-01-19T10:48:47.740Z,5.00
2023-01-19T10:51:14.719Z,4.32
2023-01-19T10:54:03.795Z,4.72
2023-01-19T10:56:35.768Z,4.70
2023-01-19T10:59:05.813Z,4.68
2023-01-19T11:01:36.929Z,4.35
2023-01-19T11:04:27.103Z,4.75
2023-01-19T11:07:13.132Z,4.35
2023-01-19T11:09:39.747Z,4.43
2023-01-19T11:12:22.599Z,4.68
2023-01-19T11:14:50.450Z,4.50
2023-01-19T11:17:22.740Z,4.60
2023-01-19T11:20:00.893Z,4.70
2023-01-19T11:22:31.540Z,4.78
2023-01-19T11:25:04.045Z,4.90
2023-01-19T11:27:34.720Z,5.25
2023-01-19T11:30:14.979Z,4.95
2023-01-19T11:32:42.985Z,5.35
2023-01-19T11:35:39.441Z,4.82
2023-01-19T11:38:12.123Z,4.65
2023-01-19T11:40:40.342Z,4.80
2023-01-19T11:43:12.726Z,4.97
2023-01-19T11:48:07.715Z,4.43
2023-01-19T11:50:54.489Z,5.18
2023-01-19T11:53:24.993Z,5.45
2023-01-19T11:56:14.944Z,5.05
2023-01-19T11:58:47.438Z,4.50
2023-01-19T12:04:04.540Z,4.90
2023-01-19T12:06:35.346Z,4.93
2023-01-19T12:09:13.283Z,6.03
2023-01-19T12:12:06.104Z,18.25
2023-01-19T12:17:25.755Z,5.20
2023-01-19T12:20:01.178Z,5.78
2023-01-19T12:22:30.004Z,5.03
2023-01-19T12:25:06.842Z,5.93
2023-01-19T12:27:40.537Z,5.43
2023-01-19T12:30:28.049Z,4.78
2023-01-19T12:33:20.579Z,6.10
2023-01-19T12:36:01.087Z,5.35
2023-01-19T12:38:43.049Z,5.55
2023-01-19T12:41:32.915Z,5.10
2023-01-19T12:44:16.081Z,5.22
2023-01-19T12:46:42.664Z,5.72
2023-01-19T12:49:24.525Z,5.88
2023-01-19T12:51:54.063Z,5.32
2023-01-19T12:54:34.478Z,4.60
2023-01-19T12:57:08.739Z,4.38
2023-01-19T12:59:37.400Z,4.90
2023-01-19T13:02:22.852Z,4.10
2023-01-19T13:05:11.809Z,3.67
2023-01-19T13:08:03.383Z,3.90
2023-01-19T13:11:10.471Z,3.33
2023-01-19T13:13:43.755Z,3.45
2023-01-19T13:16:19.739Z,3.05
2023-01-19T13:18:48.019Z,3.28
2023-01-19T13:21:25.641Z,2.80
2023-01-19T13:23:55.400Z,2.97
2023-01-19T13:26:43.546Z,3.33
2023-01-19T13:29:22.384Z,3.13
2023-01-19T13:31:49.610Z,3.00
2023-01-19T13:34:22.863Z,3.00
2023-01-19T13:36:59.310Z,2.92
2023-01-19T13:39:37.446Z,3.17
2023-01-19T13:42:30.782Z,2.70
2023-01-19T13:45:00.804Z,2.65
2023-01-19T13:47:43.711Z,2.70
2023-01-19T13:50:23.869Z,2.40
2023-01-19T13:52:53.866Z,2.38
2023-01-19T13:55:21.519Z,2.40
2023-01-19T13:57:49.546Z,2.50
2023-01-19T14:00:25.382Z,2.13
2023-01-19T14:03:02.279Z,2.30
2023-01-19T14:05:33.118Z,2.30
2023-01-19T14:08:04.053Z,2.33
2023-01-19T14:10:31.322Z,2.13
2023-01-19T14:13:00.154Z,2.33
2023-01-19T14:15:28.116Z,2.10
2023-01-19T14:18:11.125Z,1.83
2023-01-19T14:20:38.399Z,2.17
2023-01-19T14:23:06.495Z,2.17
2023-01-19T14:25:35.707Z,2.00
2023-01-19T14:28:40.236Z,2.30
2023-01-19T14:31:26.499Z,2.00
2023-01-19T14:33:55.770Z,2.30
2023-01-19T14:36:22.306Z,2.05
2023-01-19T14:38:51.639Z,2.08
2023-01-19T14:41:36.084Z,2.30
2023-01-19T14:44:09.037Z,2.00
2023-01-19T14:46:36.340Z,1.90
2023-01-19T14:49:05.785Z,2.10
2023-01-19T14:51:32.701Z,2.40
2023-01-19T14:54:01.865Z,2.08
2023-01-19T14:56:31.851Z,2.45
2023-01-19T14:59:00.870Z,2.30
2023-01-19T15:01:28.626Z,2.58
2023-01-19T15:03:58.168Z,2.40
2023-01-19T15:06:26.299Z,2.10
2023-01-19T15:08:54.259Z,2.38
2023-01-19T15:11:31.142Z,2.10
2023-01-19T15:13:59.099Z,2.20
2023-01-19T15:16:28.301Z,2.08
2023-01-19T15:18:55.407Z,2.58
2023-01-19T15:21:23.737Z,2.42
2023-01-19T15:23:50.670Z,2.35
2023-01-19T15:26:19.314Z,2.50
2023-01-19T15:28:46.987Z,2.63
2023-01-19T15:31:16.003Z,3.05
2023-01-19T15:33:43.109Z,2.03
2023-01-19T15:36:17.020Z,2.42
2023-01-19T15:38:45.096Z,2.47
2023-01-19T15:41:26.017Z,2.50
2023-01-19T15:43:53.032Z,2.80
2023-01-19T15:46:20.899Z,2.55
2023-01-19T15:48:48.234Z,2.63
2023-01-19T15:51:17.927Z,2.67
2023-01-19T15:53:45.101Z,2.58
2023-01-19T15:56:16.388Z,2.83
2023-01-19T15:58:43.625Z,2.92
2023-01-19T16:01:13.252Z,3.15
2023-01-19T16:03:39.965Z,2.60
2023-01-19T16:06:07.231Z,3.30
2023-01-19T16:08:34.314Z,2.65
2023-01-19T16:11:08.910Z,3.10
2023-01-19T16:13:35.817Z,3.00
2023-01-19T16:16:08.981Z,3.00
2023-01-19T16:18:36.197Z,2.90
2023-01-19T16:21:02.749Z,3.00
2023-01-19T16:23:29.320Z,7.63
2023-01-19T16:26:01.105Z,10.30
2023-01-19T16:28:27.887Z,4.70
2023-01-19T16:30:54.581Z,3.65
2023-01-19T16:33:21.191Z,9.52
2023-01-19T16:35:48.207Z,6.55
2023-01-19T16:38:15.107Z,3.80
2023-01-19T16:40:44.532Z,3.25
2023-01-19T16:43:11.973Z,3.17
2023-01-19T16:45:55.906Z,3.40
2023-01-19T16:48:22.680Z,3.40
2023-01-19T16:51:03.898Z,3.20
2023-01-19T16:53:31.222Z,3.50
2023-01-19T16:55:57.894Z,3.58
2023-01-19T16:58:24.573Z,3.40
2023-01-19T17:00:51.332Z,3.67
2023-01-19T17:03:18.040Z,3.38
2023-01-19T17:05:49.609Z,3.72
2023-01-19T17:08:18.670Z,4.63
2023-01-19T17:10:45.909Z,5.72
2023-01-19T17:13:12.525Z,7.38
2023-01-19T17:15:39.375Z,8.50
2023-01-19T17:18:06.109Z,9.85
2023-01-19T17:20:33.947Z,12.18
2023-01-19T17:23:00.826Z,13.07
2023-01-19T17:25:27.410Z,12.80
2023-01-19T17:27:53.981Z,14.15
2023-01-19T17:30:20.722Z,14.40
2023-01-19T17:32:47.311Z,15.05
2023-01-19T17:35:13.898Z,15.07
2023-01-19T17:37:40.486Z,15.95
2023-01-19T17:40:07.632Z,15.90
2023-01-19T17:42:39.128Z,15.55
2023-01-19T17:45:06.133Z,14.68
2023-01-19T17:47:32.763Z,15.50
2023-01-19T17:50:00.439Z,16.05
2023-01-19T17:52:27.356Z,15.77
2023-01-19T17:54:53.902Z,16.15
2023-01-19T17:57:20.438Z,16.67
2023-01-19T17:59:47.836Z,16.10
2023-01-19T18:02:14.561Z,14.40
2023-01-19T18:04:41.258Z,14.02
2023-01-19T18:07:07.925Z,14.02
2023-01-19T18:09:34.594Z,13.48
2023-01-19T18:12:01.246Z,12.95
2023-01-19T18:14:27.852Z,13.57
2023-01-19T18:16:54.433Z,14.27
2023-01-19T18:19:22.410Z,13.48
2023-01-19T18:21:49.088Z,14.02
2023-01-19T18:24:15.739Z,14.70
2023-01-19T18:26:42.716Z,13.82
2023-01-19T18:29:09.449Z,13.80
2023-01-19T18:31:36.174Z,13.43
2023-01-19T18:34:02.993Z,13.23
2023-01-19T18:36:31.973Z,14.38
2023-01-19T18:38:58.630Z,12.80
2023-01-19T18:41:25.248Z,13.45
2023-01-19T18:43:53.568Z,13.68
2023-01-19T18:46:21.247Z,12.13
2023-01-19T18:48:47.941Z,11.55
2023-01-19T18:51:16.240Z,12.25
2023-01-19T18:53:44.162Z,11.15
2023-01-19T18:56:12.613Z,11.65
2023-01-19T18:58:39.617Z,10.55
2023-01-19T19:01:21.800Z,10.18
2023-01-19T19:03:48.803Z,11.02
2023-01-19T19:06:16.826Z,12.95
2023-01-19T19:08:44.188Z,13.68
2023-01-19T19:11:13.358Z,11.85
2023-01-19T19:13:40.906Z,11.60
2023-01-19T19:16:09.706Z,11.43
2023-01-19T19:18:38.400Z,11.88
2023-01-19T19:21:07.278Z,11.35
2023-01-19T19:23:34.135Z,11.88
2023-01-19T19:26:09.683Z,52.50
2023-01-19T19:28:37.626Z,13.85
2023-01-19T19:31:13.069Z,11.57
2023-01-19T19:33:40.277Z,11.40
2023-01-19T19:36:08.278Z,10.45
2023-01-19T19:38:36.837Z,9.93
2023-01-19T19:41:12.758Z,10.95
2023-01-19T19:43:39.559Z,10.82
2023-01-19T19:46:08.967Z,10.73
2023-01-19T19:48:38.893Z,10.88
2023-01-19T19:51:17.518Z,10.82
2023-01-19T19:53:45.125Z,11.70
2023-01-19T19:56:13.298Z,11.98
2023-01-19T19:58:41.858Z,12.10
2023-01-19T20:01:10.997Z,11.93
2023-01-19T20:03:38.105Z,12.57
2023-01-19T20:06:10.394Z,12.63
2023-01-19T20:08:37.516Z,11.90
2023-01-19T20:11:06.281Z,12.30
2023-01-19T20:13:34.694Z,14.27
2023-01-19T20:16:03.990Z,15.15
2023-01-19T20:18:31.286Z,14.73
2023-01-19T20:20:59.428Z,14.32
2023-01-19T20:23:26.823Z,16.17
2023-01-19T20:25:53.730Z,15.70
2023-01-19T20:28:20.343Z,15.40
2023-01-19T20:30:47.027Z,15.73
2023-01-19T20:33:13.765Z,14.40
2023-01-19T20:35:40.329Z,15.02
2023-01-19T20:38:06.970Z,15.95
2023-01-19T20:40:33.531Z,13.95
2023-01-19T20:43:00.198Z,15.57
2023-01-19T20:45:26.907Z,16.13
2023-01-19T20:47:54.307Z,16.85
2023-01-19T20:50:20.967Z,15.45
2023-01-19T20:52:48.093Z,15.95
2023-01-19T20:55:15.017Z,15.68
2023-01-19T20:57:42.031Z,15.07
2023-01-19T21:00:09.558Z,15.40
2023-01-19T21:02:36.175Z,14.02
2023-01-19T21:05:02.833Z,14.45
2023-01-19T21:07:29.391Z,16.23
2023-01-19T21:09:56.103Z,15.73
2023-01-19T21:12:23.196Z,15.70
2023-01-19T21:14:49.780Z,15.43
2023-01-19T21:17:16.630Z,15.55
2023-01-19T21:19:43.198Z,15.35
2023-01-19T21:22:09.742Z,15.80
2023-01-19T21:24:36.416Z,16.38
2023-01-19T21:27:03.056Z,16.90
2023-01-19T21:29:29.798Z,15.20
2023-01-19T21:31:56.509Z,16.73
2023-01-19T21:34:23.593Z,16.92
2023-01-19T21:36:50.163Z,15.35
2023-01-19T21:39:17.522Z,16.70
2023-01-19T21:41:45.068Z,16.50
2023-01-19T21:44:12.728Z,16.73
2023-01-19T21:46:39.414Z,15.43
2023-01-19T21:49:08.087Z,14.55
2023-01-19T21:51:36.690Z,16.40
2023-01-19T21:54:05.157Z,15.68
2023-01-19T21:56:31.938Z,14.27
2023-01-19T21:59:02.130Z,13.38
2023-01-19T22:01:29.400Z,13.88
2023-01-19T22:03:57.480Z,14.07
2023-01-19T22:06:25.353Z,12.10
2023-01-19T22:08:52.577Z,12.48
2023-01-19T22:11:20.865Z,13.02
2023-01-19T22:13:47.946Z,13.13
2023-01-19T22:16:17.796Z,12.93
2023-01-19T22:18:48.947Z,13.82
2023-01-19T22:21:23.865Z,16.25
2023-01-19T22:23:55.398Z,16.15
2023-01-19T22:26:22.787Z,16.45
2023-01-19T22:28:53.761Z,16.77
2023-01-19T22:31:20.542Z,17.70
2023-01-19T22:33:48.988Z,18.85
2023-01-19T22:36:34.085Z,18.83
2023-01-19T22:39:03.440Z,19.95
2023-01-19T22:41:33.079Z,20.92
2023-01-19T22:44:02.325Z,20.20
2023-01-19T22:46:31.895Z,19.95
2023-01-19T22:48:58.903Z,21.10
2023-01-19T22:51:26.950Z,20.50
2023-01-19T22:53:53.711Z,19.85
2023-01-19T22:56:22.937Z,20.25
2023-01-19T22:58:50.024Z,20.80
2023-01-19T23:01:19.784Z,20.50
2023-01-19T23:03:46.779Z,21.17
2023-01-19T23:06:16.254Z,21.35
2023-01-19T23:08:43.657Z,20.58
2023-01-19T23:11:16.175Z,21.27
2023-01-19T23:16:10.946Z,19.35
2023-01-19T23:18:38.044Z,19.20
2023-01-19T23:21:10.426Z,19.23
2023-01-19T23:23:37.400Z,19.92
2023-01-19T23:26:08.283Z,20.10
2023-01-19T23:28:36.554Z,20.05
2023-01-19T23:31:22.513Z,19.55
2023-01-19T23:33:54.095Z,20.65
2023-01-19T23:36:22.006Z,19.40
2023-01-19T23:38:50.781Z,20.70
2023-01-19T23:41:18.137Z,21.17
2023-01-19T23:43:44.789Z,19.83
2023-01-19T23:46:11.974Z,20.80
2023-01-19T23:48:39.379Z,20.30
2023-01-19T23:51:10.866Z,20.17
2023-01-19T23:53:37.977Z,20.42
2023-01-19T23:56:15.196Z,20.85
2023-01-19T23:58:41.879Z,21.25
